Time;durP1;ratioP1;P1;durP2;ratioP2;P2;SDS_P1;SDS_P2;PMS_P1;PMS_P2;Temp;Humidity;BMP_temperature;BMP_pressure;BME280_temperature;BME280_humidity;BME280_pressure;Samples;Min_cycle;Max_cycle;Signal;HPM_P1;HPM_P2
2023/06/19 00:00:16;;;;;;;5.53;4.95;;;23.20;73.70;;;;;;5092923;28;20073;-31
2023/06/19 00:02:43;;;;;;;5.90;5.00;;;22.70;62.40;;;;;;5092318;28;20511;-33
2023/06/19 00:05:10;;;;;;;5.32;4.82;;;23.00;74.40;;;;;;5092442;28;20126;-32
2023/06/19 00:07:37;;;;;;;6.00;5.32;;;;;;;;;;5092742;28;20078;-36
2023/06/19 00:10:04;;;;;;;5.68;5.10;;;23.00;73.30;;;;;;5092575;28;20052;-32
2023/06/19 00:12:31;;;;;;;6.68;5.47;;;23.10;67.80;;;;;;5092592;28;20127;-32
2023/06/19 00:14:59;;;;;;;5.88;5.32;;;23.50;61.70;;;;;;5092303;28;20066;-31
2023/06/19 00:17:27;;;;;;;6.47;5.28;;;22.40;73.40;;;;;;5092717;28;20139;-31
2023/06/19 00:19:53;;;;;;;5.78;5.13;;;23.20;74.20;;;;;;5092569;28;20048;-33
2023/06/19 00:22:20;;;;;;;6.10;5.50;;;23.60;73.70;;;;;;5092363;28;20047;-31
2023/06/19 00:24:47;;;;;;;6.00;5.40;;;;;;;;;;5092349;28;20044;-34
2023/06/19 00:27:14;;;;;;;5.97;5.38;;;;;;;;;;5092527;28;20130;-33
2023/06/19 00:29:42;;;;;;;7.85;5.20;;;;;;;;;;5092546;28;20508;-35
2023/06/19 00:32:10;;;;;;;6.07;5.07;;;22.80;73.00;;;;;;5092259;28;20416;-32
2023/06/19 00:34:37;;;;;;;6.15;5.40;;;22.60;73.40;;;;;;5089977;28;20453;-31
2023/06/19 00:37:05;;;;;;;6.00;5.40;;;22.20;73.00;;;;;;5081684;28;20126;-32
2023/06/19 00:39:32;;;;;;;6.45;5.40;;;;;;;;;;5092118;28;20044;-36
2023/06/19 00:41:59;;;;;;;7.63;5.45;;;22.70;73.50;;;;;;5092004;28;20052;-32
2023/06/19 00:44:26;;;;;;;6.15;5.20;;;;;;;;;;5092098;28;20123;-35
2023/06/19 00:46:57;;;;;;;6.15;5.55;;;22.80;65.70;;;;;;5092152;28;20131;-31
2023/06/19 00:49:25;;;;;;;5.55;5.05;;;23.10;57.70;;;;;;5092087;28;20048;-36
2023/06/19 00:51:52;;;;;;;7.63;5.05;;;22.90;57.80;;;;;;5088605;28;20413;-34
2023/06/19 00:54:19;;;;;;;8.55;5.60;;;23.00;63.70;;;;;;5091571;28;20119;-32
2023/06/19 00:56:46;;;;;;;5.95;5.30;;;;;;;;;;5091809;28;20135;-35
2023/06/19 00:59:16;;;;;;;7.20;5.53;;;22.50;72.60;;;;;;5092091;28;20131;-31
2023/06/19 01:01:43;;;;;;;7.13;5.40;;;23.00;59.00;;;;;;5091936;28;20051;-32
2023/06/19 01:04:10;;;;;;;5.47;4.95;;;23.30;73.20;;;;;;5092024;28;20126;-30
2023/06/19 01:06:41;;;;;;;5.60;5.10;;;23.50;57.30;;;;;;5091974;28;20139;-35
2023/06/19 01:09:09;;;;;;;6.22;5.18;;;22.10;71.80;;;;;;5082385;28;20131;-33
2023/06/19 01:11:37;;;;;;;7.45;5.68;;;23.20;73.10;;;;;;5071839;28;20074;-32
2023/06/19 01:14:07;;;;;;;5.95;5.22;;;23.10;73.10;;;;;;5071347;28;20560;-31
2023/06/19 01:16:33;;;;;;;6.18;5.15;;;22.90;72.30;;;;;;5071850;28;20045;-31
2023/06/19 01:19:00;;;;;;;6.75;5.80;;;23.40;73.20;;;;;;5072095;28;20049;-31
2023/06/19 01:21:27;;;;;;;7.10;5.55;;;;;;;;;;5075727;28;20127;-36
2023/06/19 01:23:55;;;;;;;5.90;5.22;;;22.50;71.90;;;;;;5090822;28;20052;-32
2023/06/19 01:26:27;;;;;;;8.55;4.97;;;23.10;65.60;;;;;;5095478;28;20052;-31
2023/06/19 01:28:54;;;;;;;7.63;5.20;;;23.40;67.00;;;;;;5095721;28;20075;-32
2023/06/19 01:31:22;;;;;;;5.65;5.13;;;;;;;;;;5095976;28;20044;-31
2023/06/19 01:33:48;;;;;;;6.80;5.70;;;22.20;71.80;;;;;;5095406;28;20044;-31
2023/06/19 01:36:15;;;;;;;7.53;5.63;;;;;;;;;;5093592;28;20150;-36
2023/06/19 01:38:42;;;;;;;5.85;5.20;;;23.80;72.50;;;;;;5095593;28;20097;-33
2023/06/19 01:41:10;;;;;;;6.22;5.53;;;23.00;56.50;;;;;;5095465;28;20127;-31
2023/06/19 01:43:37;;;;;;;6.82;5.78;;;23.30;66.30;;;;;;5080474;28;20045;-31
2023/06/19 01:46:04;;;;;;;6.88;5.85;;;;;;;;;;5075186;28;20048;-33
2023/06/19 01:48:31;;;;;;;6.88;5.63;;;23.30;72.10;;;;;;5075244;28;20056;-31
2023/06/19 01:50:58;;;;;;;8.60;5.70;;;;;;;;;;5074809;28;20479;-35
2023/06/19 01:53:25;;;;;;;6.95;5.25;;;;;;;;;;5074978;28;20128;-33
2023/06/19 01:55:52;;;;;;;6.10;5.50;;;22.30;62.40;;;;;;5075132;28;20141;-32
2023/06/19 01:58:20;;;;;;;7.82;5.63;;;22.90;71.90;;;;;;5074952;28;20404;-31
2023/06/19 02:00:47;;;;;;;6.72;6.03;;;;;;;;;;5074643;28;20489;-31
2023/06/19 02:03:15;;;;;;;6.47;5.50;;;;;;;;;;5074500;28;20095;-35
2023/06/19 02:05:41;;;;;;;8.93;5.75;;;22.90;72.70;;;;;;5075197;28;20156;-31
2023/06/19 02:08:08;;;;;;;7.22;5.40;;;23.00;72.40;;;;;;5074859;28;20127;-31
2023/06/19 02:10:35;;;;;;;7.63;5.95;;;23.10;64.80;;;;;;5074857;28;20412;-31
2023/06/19 02:13:01;;;;;;;9.15;6.15;;;22.10;71.30;;;;;;5074566;28;20127;-33
2023/06/19 02:15:29;;;;;;;6.53;5.60;;;23.00;72.20;;;;;;5074575;28;20504;-31
2023/06/19 02:17:56;;;;;;;7.40;5.72;;;23.00;72.20;;;;;;5074399;28;20124;-31
2023/06/19 02:20:24;;;;;;;6.53;5.82;;;23.10;72.10;;;;;;5074496;28;20461;-31
2023/06/19 02:22:51;;;;;;;6.38;5.60;;;;;;;;;;5080724;28;20440;-36
2023/06/19 02:25:18;;;;;;;9.63;5.47;;;22.30;71.80;;;;;;5094793;28;20044;-32
2023/06/19 02:27:44;;;;;;;5.90;5.30;;;22.50;62.00;;;;;;5094814;28;20054;-31
2023/06/19 02:30:12;;;;;;;7.03;5.95;;;22.90;56.00;;;;;;5094734;28;20048;-33
2023/06/19 02:32:40;;;;;;;7.18;5.30;;;23.00;72.50;;;;;;5094343;28;20044;-31
2023/06/19 02:35:09;;;;;;;5.95;5.20;;;23.00;71.90;;;;;;5084773;28;20135;-31
2023/06/19 02:37:36;;;;;;;7.30;6.10;;;22.80;65.10;;;;;;5093893;28;20076;-32
2023/06/19 02:40:04;;;;;;;6.68;5.13;;;22.80;55.70;;;;;;5094608;28;20101;-37
2023/06/19 02:42:31;;;;;;;8.73;5.60;;;;;;;;;;5094320;28;20044;-35
2023/06/19 02:45:02;;;;;;;6.05;5.45;;;23.20;71.50;;;;;;5094271;28;20048;-32
2023/06/19 02:47:30;;;;;;;7.00;5.85;;;;;;;;;;5094616;28;20052;-31
2023/06/19 02:49:58;;;;;;;7.13;5.95;;;23.00;71.80;;;;;;5093903;28;20060;-31
2023/06/19 02:52:25;;;;;;;7.32;5.68;;;22.70;65.00;;;;;;5073501;28;20528;-31
2023/06/19 02:54:52;;;;;;;6.43;5.53;;;;;;;;;;5073676;28;20044;-32
2023/06/19 02:57:18;;;;;;;6.57;5.78;;;22.40;71.80;;;;;;5073983;28;20051;-31
2023/06/19 02:59:46;;;;;;;6.78;5.57;;;23.20;71.60;;;;;;5087208;28;20147;-32
2023/06/19 03:02:13;;;;;;;5.85;5.25;;;22.50;71.00;;;;;;5094009;28;20051;-31
2023/06/19 03:04:40;;;;;;;6.70;5.75;;;22.60;71.50;;;;;;5094339;28;20067;-32
2023/06/19 03:07:08;;;;;;;7.15;5.97;;;22.20;71.60;;;;;;5092195;28;20055;-31
2023/06/19 03:09:35;;;;;;;6.10;5.30;;;22.90;71.20;;;;;;5094135;28;20131;-31
2023/06/19 03:12:02;;;;;;;7.13;5.80;;;21.70;64.90;;;;;;5093601;28;20051;-31
2023/06/19 03:14:29;;;;;;;7.88;5.45;;;;;;;;;;5093825;28;20047;-33
2023/06/19 03:16:55;;;;;;;8.02;5.47;;;23.00;71.20;;;;;;5092488;28;20086;-31
2023/06/19 03:19:22;;;;;;;7.80;5.72;;;;;;;;;;5093636;28;20456;-36
2023/06/19 03:21:49;;;;;;;8.82;5.80;;;23.20;71.50;;;;;;5093377;28;20588;-31
2023/06/19 03:24:17;;;;;;;7.18;6.30;;;23.50;71.80;;;;;;5088642;28;20050;-31
2023/06/19 03:26:44;;;;;;;6.90;5.68;;;;;;;;;;5073385;28;20139;-34
2023/06/19 03:29:11;;;;;;;6.93;5.57;;;;;;;;;;5073361;28;20048;-34
2023/06/19 03:31:39;;;;;;;6.78;5.28;;;22.40;71.60;;;;;;5084141;28;20131;-32
2023/06/19 03:34:06;;;;;;;6.28;5.55;;;22.80;71.00;;;;;;5088819;28;20119;-31
2023/06/19 03:36:32;;;;;;;5.88;5.28;;;22.40;71.60;;;;;;5092792;28;20051;-32
2023/06/19 03:38:59;;;;;;;7.60;5.70;;;22.00;59.70;;;;;;5093015;28;20127;-32
2023/06/19 03:41:27;;;;;;;6.32;5.70;;;22.70;55.10;;;;;;5087854;28;20127;-33
2023/06/19 03:43:54;;;;;;;6.30;5.70;;;;;;;;;;5087711;28;20134;-32
2023/06/19 03:46:21;;;;;;;6.25;5.65;;;23.00;72.10;;;;;;5093251;28;20048;-32
2023/06/19 03:48:48;;;;;;;8.60;5.97;;;22.90;66.40;;;;;;5093054;28;20134;-32
2023/06/19 03:51:15;;;;;;;6.72;5.63;;;;;;;;;;5092992;28;20094;-33
2023/06/19 03:53:42;;;;;;;6.70;6.00;;;22.70;58.50;;;;;;5092683;28;20043;-33
2023/06/19 03:56:09;;;;;;;7.50;6.03;;;23.40;71.70;;;;;;5093049;28;20063;-32
2023/06/19 03:58:37;;;;;;;6.00;5.40;;;22.80;72.20;;;;;;5091425;28;20040;-33
2023/06/19 04:01:05;;;;;;;8.60;5.68;;;;;;;;;;5092702;28;20132;-32
2023/06/19 04:03:32;;;;;;;6.88;6.03;;;;;;;;;;5092716;28;20052;-33
2023/06/19 04:05:59;;;;;;;6.55;5.25;;;23.60;72.30;;;;;;5092699;28;20072;-33
2023/06/19 04:08:26;;;;;;;7.82;6.40;;;;;;;;;;5092580;28;20120;-35
2023/06/19 04:10:53;;;;;;;6.15;5.28;;;23.10;72.10;;;;;;5092708;28;20058;-31
2023/06/19 04:13:20;;;;;;;8.38;5.60;;;22.50;71.90;;;;;;5092198;28;20509;-33
2023/06/19 04:15:48;;;;;;;7.97;5.63;;;22.20;72.20;;;;;;5086861;28;20063;-33
2023/06/19 04:18:15;;;;;;;6.60;5.50;;;22.20;71.80;;;;;;5079462;28;20408;-32
2023/06/19 04:20:41;;;;;;;6.70;5.78;;;22.70;71.90;;;;;;5076605;28;20124;-34
2023/06/19 04:23:09;;;;;;;6.55;5.68;;;;;;;;;;5080877;28;20596;-35
2023/06/19 04:25:35;;;;;;;7.47;6.07;;;22.70;72.70;;;;;;5092597;28;20054;-32
2023/06/19 04:28:03;;;;;;;8.30;6.13;;;22.60;72.00;;;;;;5092523;28;20134;-31
2023/06/19 04:30:30;;;;;;;8.68;6.28;;;22.90;72.90;;;;;;5092281;28;20385;-32
2023/06/19 04:32:58;;;;;;;5.97;5.32;;;22.80;56.30;;;;;;5089325;28;20048;-37
2023/06/19 04:35:25;;;;;;;6.63;5.57;;;;;;;;;;5071573;28;20129;-35
2023/06/19 04:37:52;;;;;;;6.90;5.88;;;22.30;72.60;;;;;;5078073;28;20051;-32
2023/06/19 04:40:19;;;;;;;6.53;5.10;;;;;;;;;;5085977;28;20056;-35
2023/06/19 04:42:46;;;;;;;8.90;5.45;;;;;;;;;;5092186;28;20075;-35
2023/06/19 04:45:12;;;;;;;6.47;5.13;;;22.50;72.50;;;;;;5091903;28;20568;-31
2023/06/19 04:47:39;;;;;;;6.40;5.35;;;;;;;;;;5082938;28;20048;-34
2023/06/19 04:50:09;;;;;;;5.70;5.05;;;22.10;72.10;;;;;;5079020;28;20054;-32
2023/06/19 04:52:35;;;;;;;6.30;5.18;;;23.60;59.70;;;;;;5079285;28;20057;-33
2023/06/19 04:55:02;;;;;;;6.38;5.65;;;22.60;72.80;;;;;;5084113;28;20127;-34
2023/06/19 04:57:29;;;;;;;6.10;5.50;;;;;;;;;;5091847;28;20135;-33
2023/06/19 04:59:56;;;;;;;5.95;5.35;;;23.10;73.10;;;;;;5092045;28;20107;-34
2023/06/19 05:02:23;;;;;;;6.65;5.35;;;22.60;72.80;;;;;;5091827;28;20131;-32
2023/06/19 05:04:50;;;;;;;8.32;5.63;;;23.70;67.90;;;;;;5091106;28;20093;-32
2023/06/19 05:07:18;;;;;;;7.75;5.38;;;22.40;73.50;;;;;;5091521;28;20074;-33
2023/06/19 05:09:45;;;;;;;7.63;5.63;;;22.80;73.50;;;;;;5091625;28;20048;-31
2023/06/19 05:12:12;;;;;;;6.97;5.50;;;;;;;;;;5091850;28;20131;-38
2023/06/19 05:14:39;;;;;;;6.75;5.63;;;;;;;;;;5087401;28;20048;-33
2023/06/19 05:17:09;;;;;;;7.90;5.63;;;22.20;57.20;;;;;;5083369;28;20139;-34
2023/06/19 05:19:35;;;;;;;8.95;5.90;;;22.40;73.70;;;;;;5091882;28;20051;-33
2023/06/19 05:22:02;;;;;;;6.78;5.40;;;22.90;57.60;;;;;;5091881;28;20075;-34
2023/06/19 05:24:30;;;;;;;6.80;5.55;;;22.90;73.50;;;;;;5079796;28;20420;-32
2023/06/19 05:26:57;;;;;;;7.18;5.57;;;22.90;66.30;;;;;;5082050;28;20128;-32
2023/06/19 05:29:24;;;;;;;8.20;5.10;;;22.50;73.00;;;;;;5071567;28;20079;-32
2023/06/19 05:31:51;;;;;;;6.47;4.55;;;22.50;72.40;;;;;;5088393;28;20052;-32
2023/06/19 05:34:18;;;;;;;5.80;4.78;;;22.60;73.60;;;;;;5087214;28;20040;-33
2023/06/19 05:36:46;;;;;;;6.38;5.28;;;22.60;73.20;;;;;;5084564;28;20467;-32
2023/06/19 05:39:13;;;;;;;6.97;5.07;;;21.80;72.70;;;;;;5085792;28;20586;-34
2023/06/19 05:41:41;;;;;;;6.20;5.03;;;22.90;58.00;;;;;;5071551;28;20045;-34
2023/06/19 05:44:09;;;;;;;5.63;4.40;;;23.00;74.40;;;;;;5071139;28;20135;-31
2023/06/19 05:46:36;;;;;;;6.85;4.50;;;22.70;74.10;;;;;;5076439;28;20460;-32
2023/06/19 05:49:03;;;;;;;4.78;4.03;;;;;;;;;;5091595;28;20058;-32
2023/06/19 05:51:30;;;;;;;6.32;4.10;;;23.80;74.20;;;;;;5090052;28;20058;-32
2023/06/19 05:54:01;;;;;;;5.30;4.10;;;22.70;73.50;;;;;;5090440;28;20572;-31
2023/06/19 05:56:28;;;;;;;5.72;3.63;;;;;;;;;;5091808;28;20062;-34
2023/06/19 05:58:56;;;;;;;5.70;3.45;;;22.40;74.20;;;;;;5085256;28;20052;-32
2023/06/19 06:01:24;;;;;;;4.93;3.60;;;22.80;73.80;;;;;;5091466;28;20079;-32
2023/06/19 06:03:50;;;;;;;5.50;3.35;;;22.80;73.90;;;;;;5082690;28;20055;-32
2023/06/19 06:06:17;;;;;;;5.60;3.25;;;23.40;74.10;;;;;;5073788;28;20040;-32
2023/06/19 06:08:44;;;;;;;6.18;3.13;;;;;;;;;;5080327;28;20066;-34
2023/06/19 06:11:11;;;;;;;5.32;3.08;;;23.40;74.50;;;;;;5082376;28;20044;-31
2023/06/19 06:13:38;;;;;;;6.05;3.08;;;;;;;;;;5083998;28;20044;-35
2023/06/19 06:16:07;;;;;;;5.78;3.10;;;22.60;74.50;;;;;;5079131;28;20119;-32
2023/06/19 06:18:34;;;;;;;4.38;3.03;;;;;;;;;;5082072;28;20056;-37
2023/06/19 06:21:01;;;;;;;4.00;3.03;;;23.20;74.70;;;;;;5084765;28;20044;-32
2023/06/19 06:23:28;;;;;;;5.63;2.70;;;22.90;74.90;;;;;;5082221;28;20634;-33
2023/06/19 06:26:01;;;;;;;4.68;2.67;;;;;;;;;;5082261;28;20040;-32
2023/06/19 06:28:27;;;;;;;5.95;3.08;;;22.90;75.10;;;;;;5081050;28;20123;-33
2023/06/19 06:30:55;;;;;;;3.28;2.72;;;23.00;59.90;;;;;;5082183;28;20048;-34
2023/06/19 06:33:23;;;;;;;6.55;3.10;;;23.00;60.00;;;;;;5084386;28;20124;-32
2023/06/19 06:35:51;;;;;;;3.72;2.90;;;22.90;73.30;;;;;;5092758;28;20059;-32
2023/06/19 06:38:18;;;;;;;3.78;3.20;;;22.90;75.50;;;;;;5094781;28;20114;-32
2023/06/19 06:40:45;;;;;;;4.45;3.10;;;;;;;;;;5091043;28;20119;-34
2023/06/19 06:43:11;;;;;;;4.43;2.63;;;22.90;75.90;;;;;;5074562;28;20069;-32
2023/06/19 06:45:38;;;;;;;3.53;3.00;;;23.40;76.10;;;;;;5073270;28;20046;-32
2023/06/19 06:48:05;;;;;;;3.90;2.70;;;23.00;60.60;;;;;;5091741;28;20052;-34
2023/06/19 06:50:34;;;;;;;3.67;2.90;;;24.00;73.70;;;;;;5093903;28;20048;-32
2023/06/19 06:53:01;;;;;;;4.03;2.83;;;22.60;68.90;;;;;;5093333;28;20131;-32
2023/06/19 06:55:28;;;;;;;3.58;2.63;;;23.30;64.20;;;;;;5094396;28;20153;-32
2023/06/19 06:57:55;;;;;;;4.50;3.28;;;;;;;;;;5094525;28;20080;-33
2023/06/19 07:00:22;;;;;;;3.05;2.65;;;22.60;66.40;;;;;;5093667;28;20052;-34
2023/06/19 07:02:50;;;;;;;6.75;2.72;;;22.70;76.40;;;;;;5080733;28;20056;-32
2023/06/19 07:05:17;;;;;;;4.10;2.25;;;23.30;76.50;;;;;;5090469;28;20134;-31
2023/06/19 07:07:45;;;;;;;3.75;2.50;;;23.60;75.10;;;;;;5080266;28;20135;-32
2023/06/19 07:10:12;;;;;;;4.20;2.70;;;22.90;74.00;;;;;;5079136;28;20123;-31
2023/06/19 07:12:48;;;;;;;5.65;2.95;;;22.60;76.30;;;;;;5073591;28;20079;-32
2023/06/19 07:15:15;;;;;;;3.58;2.63;;;22.10;75.80;;;;;;5073989;28;20044;-32
2023/06/19 07:17:42;;;;;;;2.83;2.50;;;;;;;;;;5091736;28;20093;-34
2023/06/19 07:20:10;;;;;;;4.85;2.70;;;23.90;76.80;;;;;;5094457;28;20126;-32
2023/06/19 07:22:37;;;;;;;6.82;2.70;;;23.20;76.50;;;;;;5089654;28;20046;-32
2023/06/19 07:25:06;;;;;;;4.47;2.80;;;23.10;61.40;;;;;;5079206;28;20050;-35
2023/06/19 07:27:33;;;;;;;4.22;2.60;;;23.80;76.70;;;;;;5075907;28;20123;-33
2023/06/19 07:29:59;;;;;;;3.05;2.72;;;22.10;76.10;;;;;;5073572;28;20128;-31
2023/06/19 07:32:27;;;;;;;5.05;3.08;;;;;;;;;;5079241;28;20135;-35
2023/06/19 07:34:54;;;;;;;4.97;2.70;;;23.30;76.90;;;;;;5076385;28;20131;-32
2023/06/19 07:37:20;;;;;;;3.28;2.95;;;22.80;64.40;;;;;;5085134;28;20147;-32
2023/06/19 07:39:47;;;;;;;3.85;3.00;;;22.70;76.80;;;;;;5081114;28;20052;-31
2023/06/19 07:42:16;;;;;;;4.95;3.50;;;23.30;77.60;;;;;;5075732;28;20054;-31
2023/06/19 07:44:43;;;;;;;4.38;3.15;;;;;;;;;;5080961;28;20051;-34
2023/06/19 07:47:10;;;;;;;5.03;3.38;;;23.00;77.10;;;;;;5082532;28;20040;-32
2023/06/19 07:49:37;;;;;;;4.53;3.38;;;;;;;;;;5080488;28;20452;-35
2023/06/19 07:52:04;;;;;;;4.05;3.30;;;22.80;66.70;;;;;;5079022;28;20129;-35
2023/06/19 07:54:31;;;;;;;4.47;3.63;;;;;;;;;;5074125;28;20053;-35
2023/06/19 07:56:58;;;;;;;4.32;3.75;;;22.90;77.90;;;;;;5084010;28;20423;-32
2023/06/19 07:59:26;;;;;;;9.10;4.15;;;22.80;76.70;;;;;;5087965;28;20127;-32
2023/06/19 08:01:53;;;;;;;6.18;4.18;;;23.40;77.20;;;;;;5092096;28;20126;-41
2023/06/19 08:04:19;;;;;;;5.57;4.15;;;22.30;67.60;;;;;;5091715;28;20052;-39
2023/06/19 08:06:46;;;;;;;4.70;4.03;;;23.20;73.90;;;;;;5092420;28;20511;-40
2023/06/19 08:09:13;;;;;;;4.38;3.88;;;22.60;76.70;;;;;;5091155;28;20123;-41
2023/06/19 08:11:40;;;;;;;5.45;4.18;;;23.60;77.30;;;;;;5090950;28;20055;-40
2023/06/19 08:14:07;;;;;;;6.05;4.30;;;22.80;77.80;;;;;;5071668;28;20131;-41
2023/06/19 08:16:35;;;;;;;6.57;4.57;;;23.10;62.10;;;;;;5071356;28;20673;-37
2023/06/19 08:19:02;;;;;;;6.68;3.90;;;22.90;77.80;;;;;;5072769;28;20135;-41
2023/06/19 08:21:28;;;;;;;5.05;4.30;;;23.10;64.20;;;;;;5072839;28;20060;-39
2023/06/19 08:23:55;;;;;;;7.97;4.20;;;23.00;77.70;;;;;;5087935;28;20146;-41
2023/06/19 08:26:22;;;;;;;7.03;4.45;;;;;;;;;;5092591;28;20044;-38
2023/06/19 08:28:49;;;;;;;6.72;4.32;;;23.10;77.70;;;;;;5080639;28;20517;-41
2023/06/19 08:31:16;;;;;;;5.38;4.18;;;23.00;77.80;;;;;;5072590;28;20052;-40
2023/06/19 08:33:45;;;;;;;5.00;4.20;;;23.80;77.80;;;;;;5071969;28;20048;-41
2023/06/19 08:36:11;;;;;;;6.50;4.13;;;24.20;78.20;;;;;;5075003;28;20191;-41
2023/06/19 08:38:38;;;;;;;6.68;4.45;;;;;;;;;;5084911;28;20123;-37
2023/06/19 08:41:05;;;;;;;6.57;4.13;;;22.20;77.40;;;;;;5072263;28;20055;-31
2023/06/19 08:43:32;;;;;;;4.90;4.10;;;22.70;78.20;;;;;;5075429;28;20048;-32
2023/06/19 08:46:07;;;;;;;6.50;4.57;;;23.90;65.70;;;;;;5088873;28;20127;-34
2023/06/19 08:48:35;;;;;;;5.68;4.28;;;22.50;77.70;;;;;;5092867;28;20127;-31
2023/06/19 08:51:04;;;;;;;5.45;4.10;;;23.30;77.90;;;;;;5092568;28;20413;-31
2023/06/19 08:53:34;;;;;;;9.73;4.70;;;23.10;69.30;;;;;;5092130;28;20048;-32
2023/06/19 08:56:00;;;;;;;4.85;4.35;;;23.40;78.70;;;;;;5092687;28;20188;-31
2023/06/19 08:58:27;;;;;;;6.20;4.32;;;23.90;70.10;;;;;;5075840;28;20080;-31
2023/06/19 09:00:54;;;;;;;4.70;4.20;;;23.90;78.60;;;;;;5072030;28;20131;-31
2023/06/19 09:03:22;;;;;;;5.10;4.60;;;;;;;;;;5071705;28;20568;-36
2023/06/19 09:05:50;;;;;;;4.90;4.40;;;22.00;77.30;;;;;;5071976;28;20056;-31
2023/06/19 09:08:18;;;;;;;7.35;4.63;;;23.00;62.80;;;;;;5075270;28;20052;-36
2023/06/19 09:10:58;;;;;;;6.03;3.88;;;23.00;62.70;;;;;;5087944;28;20048;-37
2023/06/19 09:13:25;;;;;;;5.80;3.90;;;23.20;77.80;;;;;;5084091;28;20048;-32
2023/06/19 09:15:58;;;;;;;6.10;4.25;;;23.60;66.20;;;;;;5071954;28;20071;-38
2023/06/19 09:18:25;;;;;;;4.70;4.30;;;22.30;78.20;;;;;;5082966;28;20123;-40
2023/06/19 09:20:53;;;;;;;5.93;4.72;;;23.10;68.30;;;;;;5091941;28;20139;-40
2023/06/19 09:23:21;;;;;;;5.65;5.05;;;23.30;70.70;;;;;;5091892;28;20465;-39
2023/06/19 09:25:48;;;;;;;5.90;5.30;;;22.60;68.70;;;;;;5087459;28;20051;-37
2023/06/19 09:28:19;;;;;;;6.13;5.53;;;22.90;77.50;;;;;;5079124;28;20040;-39
2023/06/19 09:30:53;;;;;;;6.38;5.68;;;23.00;62.40;;;;;;5074068;28;20040;-38
2023/06/19 09:33:20;;;;;;;6.18;5.57;;;;;;;;;;5079970;28;20053;-38
2023/06/19 09:35:48;;;;;;;6.28;5.68;;;23.50;78.60;;;;;;5082086;28;20047;-41
2023/06/19 09:38:16;;;;;;;6.50;5.80;;;21.90;72.80;;;;;;5076933;28;20055;-39
2023/06/19 09:40:45;;;;;;;5.90;5.30;;;23.20;77.40;;;;;;5073699;28;20045;-42
2023/06/19 09:43:12;;;;;;;7.75;6.95;;;;;;;;;;5075295;28;20048;-41
2023/06/19 09:45:39;;;;;;;7.15;6.20;;;22.80;77.10;;;;;;5089235;28;20042;-42
2023/06/19 09:48:05;;;;;;;7.53;6.60;;;23.90;78.00;;;;;;5084256;28;20466;-42
2023/06/19 09:50:34;;;;;;;6.43;5.70;;;;;;;;;;5084117;28;20055;-38
2023/06/19 09:53:01;;;;;;;7.68;6.30;;;;;;;;;;5095332;28;20059;-38
2023/06/19 09:55:29;;;;;;;6.85;5.85;;;23.00;77.40;;;;;;5095500;28;20492;-41
2023/06/19 09:57:57;;;;;;;7.63;6.05;;;22.70;76.70;;;;;;5086443;28;20401;-41
2023/06/19 10:00:30;;;;;;;6.50;5.85;;;24.00;77.60;;;;;;5083004;28;20128;-40
2023/06/19 10:02:58;;;;;;;7.32;6.57;;;22.50;65.70;;;;;;5081002;28;20048;-40
2023/06/19 10:05:31;;;;;;;7.72;6.93;;;23.70;75.30;;;;;;5085878;28;20055;-41
2023/06/19 10:07:59;;;;;;;7.95;6.50;;;23.70;77.70;;;;;;5091178;28;20401;-41
2023/06/19 10:10:27;;;;;;;7.60;6.63;;;23.50;76.90;;;;;;5085253;28;20045;-42
2023/06/19 10:12:55;;;;;;;7.80;5.53;;;22.60;62.90;;;;;;5074494;28;20044;-42
2023/06/19 10:15:24;;;;;;;5.97;5.45;;;23.50;76.70;;;;;;5087810;28;20051;-42
2023/06/19 10:17:52;;;;;;;6.07;5.47;;;23.10;61.40;;;;;;5074967;28;20045;-38
2023/06/19 10:20:31;;;;;;;6.82;5.15;;;23.50;77.30;;;;;;5083948;28;20127;-42
2023/06/19 10:23:04;;;;;;;7.35;5.35;;;22.80;76.10;;;;;;5094875;28;20453;-40
2023/06/19 10:25:32;;;;;;;7.38;4.88;;;22.90;76.30;;;;;;5095123;28;20134;-32
2023/06/19 10:27:59;;;;;;;5.30;4.80;;;23.00;66.60;;;;;;5094930;28;20040;-32
2023/06/19 10:30:27;;;;;;;5.47;4.85;;;23.10;67.00;;;;;;5088846;28;20127;-33
2023/06/19 10:32:54;;;;;;;7.00;4.80;;;23.50;72.10;;;;;;5074454;28;20052;-32
2023/06/19 10:35:23;;;;;;;7.43;4.45;;;23.50;76.70;;;;;;5074903;28;20044;-31
2023/06/19 10:37:50;;;;;;;6.90;4.65;;;;;;;;;;5090721;28;20101;-34
2023/06/19 10:40:17;;;;;;;7.28;4.63;;;23.40;75.70;;;;;;5094054;28;20040;-32
2023/06/19 10:42:44;;;;;;;5.63;4.30;;;22.90;62.80;;;;;;5079631;28;20051;-33
2023/06/19 10:45:13;;;;;;;5.20;4.20;;;23.50;68.00;;;;;;5083340;28;20052;-31
2023/06/19 10:47:41;;;;;;;4.90;4.30;;;23.20;75.30;;;;;;5082158;28;20119;-31
2023/06/19 10:50:11;;;;;;;5.60;4.00;;;21.30;59.20;;;;;;5082374;28;20120;-31
2023/06/19 10:52:41;;;;;;;6.25;4.00;;;23.40;60.20;;;;;;5081248;28;20059;-35
2023/06/19 10:55:08;;;;;;;5.72;4.20;;;23.90;76.30;;;;;;5092828;28;20048;-31
2023/06/19 10:57:35;;;;;;;6.30;3.70;;;24.00;76.00;;;;;;5084804;28;20050;-31
2023/06/19 11:00:05;;;;;;;4.70;4.20;;;24.50;75.60;;;;;;5094270;28;20135;-31
2023/06/19 11:02:32;;;;;;;8.93;3.92;;;;;;;;;;5091172;28;20519;-31
2023/06/19 11:05:00;;;;;;;4.32;3.78;;;23.60;74.80;;;;;;5091396;28;20045;-31
2023/06/19 11:07:27;;;;;;;4.85;3.97;;;22.60;74.00;;;;;;5094056;28;20045;-32
2023/06/19 11:09:54;;;;;;;6.22;4.30;;;24.50;75.30;;;;;;5093623;28;20131;-32
2023/06/19 11:12:21;;;;;;;4.60;4.05;;;;;;;;;;5090099;28;20062;-35
2023/06/19 11:14:48;;;;;;;4.07;3.67;;;23.90;62.70;;;;;;5082820;28;20127;-32
2023/06/19 11:17:15;;;;;;;4.90;3.78;;;23.10;64.30;;;;;;5073076;28;20116;-33
2023/06/19 11:19:44;;;;;;;5.22;4.20;;;23.50;74.60;;;;;;5073413;28;20128;-33
2023/06/19 11:22:12;;;;;;;5.03;4.20;;;22.50;60.70;;;;;;5073013;28;20060;-36
2023/06/19 11:24:44;;;;;;;4.22;3.80;;;23.60;60.30;;;;;;5082226;28;20405;-34
2023/06/19 11:27:17;;;;;;;4.25;3.80;;;24.10;75.60;;;;;;5073178;28;20460;-32
2023/06/19 11:29:44;;;;;;;5.63;3.80;;;;;;;;;;5073250;28;20121;-34
2023/06/19 11:32:14;;;;;;;4.38;3.60;;;23.70;59.60;;;;;;5074483;28;20057;-39
2023/06/19 11:34:43;;;;;;;4.57;3.75;;;23.40;74.20;;;;;;5073192;28;20054;-31
2023/06/19 11:37:17;;;;;;;4.32;3.90;;;23.80;74.70;;;;;;5077593;28;20521;-30
2023/06/19 11:39:44;;;;;;;4.35;3.70;;;24.50;73.70;;;;;;5082157;28;20063;-31
2023/06/19 11:42:11;;;;;;;3.50;3.17;;;23.60;74.20;;;;;;5083552;28;20066;-31
2023/06/19 11:44:53;;;;;;;5.07;3.22;;;23.70;59.40;;;;;;5083861;28;20131;-36
2023/06/19 11:47:20;;;;;;;6.00;3.50;;;22.60;73.50;;;;;;5085848;28;20127;-40
2023/06/19 11:49:48;;;;;;;4.43;3.63;;;24.50;74.40;;;;;;5083407;28;20139;-37
2023/06/19 11:52:16;;;;;;;4.45;4.00;;;23.50;73.80;;;;;;5079448;28;20472;-40
2023/06/19 11:54:43;;;;;;;3.97;3.45;;;23.30;74.40;;;;;;5085389;28;20127;-36
2023/06/19 11:57:11;;;;;;;4.28;3.70;;;24.00;65.00;;;;;;5093280;28;20119;-39
2023/06/19 11:59:38;;;;;;;4.88;3.75;;;;;;;;;;5092644;28;20048;-38
2023/06/19 12:02:06;;;;;;;5.20;3.78;;;24.30;74.50;;;;;;5092890;28;20484;-40
2023/06/19 12:04:33;;;;;;;5.43;3.90;;;23.40;60.30;;;;;;5082033;28;20048;-35
2023/06/19 12:07:00;;;;;;;5.07;3.83;;;23.50;73.70;;;;;;5083775;28;20050;-38
2023/06/19 12:09:28;;;;;;;4.68;3.72;;;23.80;59.10;;;;;;5091779;28;20134;-37
2023/06/19 12:11:55;;;;;;;4.65;3.42;;;;;;;;;;5090850;28;20070;-39
2023/06/19 12:14:24;;;;;;;4.65;3.58;;;23.70;73.60;;;;;;5091734;28;20058;-38
2023/06/19 12:16:51;;;;;;;5.88;3.88;;;;;;;;;;5091871;28;20044;-38
2023/06/19 12:19:18;;;;;;;3.83;3.25;;;24.10;74.50;;;;;;5092897;28;20130;-40
2023/06/19 12:21:44;;;;;;;5.30;3.50;;;24.40;74.70;;;;;;5072206;28;20048;-38
2023/06/19 12:24:14;;;;;;;3.92;3.20;;;;;;;;;;5090423;28;20462;-37
2023/06/19 12:26:42;;;;;;;4.13;3.20;;;24.10;74.60;;;;;;5092753;28;20080;-38
2023/06/19 12:29:08;;;;;;;3.55;3.10;;;24.60;63.10;;;;;;5092711;28;20127;-38
2023/06/19 12:31:36;;;;;;;4.60;3.38;;;;;;;;;;5084860;28;20481;-36
2023/06/19 12:34:03;;;;;;;5.05;3.72;;;24.80;74.90;;;;;;5072336;28;20055;-37
2023/06/19 12:36:31;;;;;;;4.85;3.30;;;23.60;62.40;;;;;;5076210;28;20080;-37
2023/06/19 12:38:59;;;;;;;5.38;2.97;;;23.40;73.20;;;;;;5092542;28;20075;-38
2023/06/19 12:41:26;;;;;;;3.60;3.28;;;23.90;68.60;;;;;;5092357;28;20079;-40
2023/06/19 12:43:55;;;;;;;4.38;3.55;;;24.40;58.90;;;;;;5091789;28;20052;-36
2023/06/19 12:46:22;;;;;;;5.40;3.10;;;24.30;61.80;;;;;;5092357;28;20130;-38
2023/06/19 12:48:50;;;;;;;3.53;3.22;;;;;;;;;;5085877;28;20044;-36
2023/06/19 12:51:18;;;;;;;3.97;3.58;;;24.20;72.50;;;;;;5080784;28;20489;-40
2023/06/19 12:53:45;;;;;;;4.80;3.20;;;23.60;73.50;;;;;;5075011;28;20048;-38
2023/06/19 12:56:12;;;;;;;5.80;3.25;;;24.60;74.00;;;;;;5072022;28;20135;-36
2023/06/19 12:58:38;;;;;;;5.70;3.30;;;24.30;63.50;;;;;;5090012;28;20044;-37
2023/06/19 13:01:06;;;;;;;4.82;3.47;;;24.50;62.20;;;;;;5092111;28;20079;-38
2023/06/19 13:03:33;;;;;;;6.05;3.17;;;24.20;74.00;;;;;;5078977;28;20263;-37
2023/06/19 13:06:00;;;;;;;4.68;3.50;;;23.80;74.00;;;;;;5071696;28;20509;-38
2023/06/19 13:08:27;;;;;;;3.63;3.30;;;;;;;;;;5071710;28;20428;-37